Serra Grande, Brazil
Current Conditions -  °F | °C
As of 7:00 PM on Tuesday 25 Nov 2014 (Local Time) from SBSV Reporting Station
Scattered Clouds Scattered Clouds  
Wind Chill: 79°   Ceiling: Unl
Heat Index: 81°   Visibility: 6mi
Dew Point: 70°   Wind: 12mph
Humidity: 74%   Direction: 90°E
Pressure: 29.88"   Gusts: NA
Location:  13.28°S, 39.45°W
Report Text: SBSV 252200Z 09010KT 9999 SCT017 26/21 Q1012
Loading
Personal Weather Stations






























Interactive Weather Map New forecast layout! Learn more

10-Day Weather Forecast

Advertisements
Track Severe Weather on mobile